sensor_id;sensor_type;location;lat;lon;timestamp;P1;durP1;ratioP1;P2;durP2;ratioP2
49384;SDS011;36795;45.028;38.968;2023-09-19T00:01:12;21.33;;;6.05;;
49384;SDS011;36795;45.028;38.968;2023-09-19T00:03:59;20.17;;;5.97;;
49384;SDS011;36795;45.028;38.968;2023-09-19T00:06:45;18.62;;;6.07;;
49384;SDS011;36795;45.028;38.968;2023-09-19T00:09:32;19.27;;;5.85;;
49384;SDS011;36795;45.028;38.968;2023-09-19T00:12:21;19.67;;;6.12;;
49384;SDS011;36795;45.028;38.968;2023-09-19T00:15:08;19.25;;;5.75;;
49384;SDS011;36795;45.028;38.968;2023-09-19T00:17:55;18.37;;;6.03;;
49384;SDS011;36795;45.028;38.968;2023-09-19T00:20:42;19.12;;;5.97;;
49384;SDS011;36795;45.028;38.968;2023-09-19T00:23:32;20.92;;;6.28;;
49384;SDS011;36795;45.028;38.968;2023-09-19T00:26:18;23.48;;;6.32;;
49384;SDS011;36795;45.028;38.968;2023-09-19T00:29:06;17.17;;;5.37;;
49384;SDS011;36795;45.028;38.968;2023-09-19T00:31:53;21.80;;;6.90;;
49384;SDS011;36795;45.028;38.968;2023-09-19T00:34:39;21.52;;;6.10;;
49384;SDS011;36795;45.028;38.968;2023-09-19T00:37:29;22.80;;;6.47;;
49384;SDS011;36795;45.028;38.968;2023-09-19T00:40:15;19.20;;;5.68;;
49384;SDS011;36795;45.028;38.968;2023-09-19T00:43:02;21.00;;;5.87;;
49384;SDS011;36795;45.028;38.968;2023-09-19T00:45:50;19.75;;;5.75;;
49384;SDS011;36795;45.028;38.968;2023-09-19T00:48:39;24.17;;;6.93;;
49384;SDS011;36795;45.028;38.968;2023-09-19T00:51:41;21.30;;;6.00;;
49384;SDS011;36795;45.028;38.968;2023-09-19T00:54:34;20.55;;;5.97;;
49384;SDS011;36795;45.028;38.968;2023-09-19T00:57:21;22.80;;;5.82;;
49384;SDS011;36795;45.028;38.968;2023-09-19T01:00:08;17.55;;;5.78;;
49384;SDS011;36795;45.028;38.968;2023-09-19T01:03:01;19.47;;;5.40;;
49384;SDS011;36795;45.028;38.968;2023-09-19T01:05:47;23.17;;;6.68;;
49384;SDS011;36795;45.028;38.968;2023-09-19T01:08:33;20.25;;;5.87;;
49384;SDS011;36795;45.028;38.968;2023-09-19T01:11:28;20.30;;;6.95;;
49384;SDS011;36795;45.028;38.968;2023-09-19T01:17:20;20.10;;;6.22;;
49384;SDS011;36795;45.028;38.968;2023-09-19T01:29:45;21.52;;;6.28;;
49384;SDS011;36795;45.028;38.968;2023-09-19T01:32:33;19.05;;;6.05;;
49384;SDS011;36795;45.028;38.968;2023-09-19T01:35:19;19.92;;;7.28;;
49384;SDS011;36795;45.028;38.968;2023-09-19T01:38:06;17.00;;;5.82;;
49384;SDS011;36795;45.028;38.968;2023-09-19T01:41:07;19.10;;;6.28;;
49384;SDS011;36795;45.028;38.968;2023-09-19T01:44:00;21.55;;;6.60;;
49384;SDS011;36795;45.028;38.968;2023-09-19T01:46:51;23.15;;;5.65;;
49384;SDS011;36795;45.028;38.968;2023-09-19T01:49:44;21.02;;;6.25;;
49384;SDS011;36795;45.028;38.968;2023-09-19T01:52:55;21.27;;;6.32;;
49384;SDS011;36795;45.028;38.968;2023-09-19T01:55:50;21.00;;;6.45;;
49384;SDS011;36795;45.028;38.968;2023-09-19T01:58:41;19.90;;;6.40;;
49384;SDS011;36795;45.028;38.968;2023-09-19T02:01:32;20.52;;;6.35;;
49384;SDS011;36795;45.028;38.968;2023-09-19T02:04:21;18.98;;;6.40;;
49384;SDS011;36795;45.028;38.968;2023-09-19T02:07:06;22.00;;;6.07;;
49384;SDS011;36795;45.028;38.968;2023-09-19T02:09:53;19.75;;;6.53;;
49384;SDS011;36795;45.028;38.968;2023-09-19T02:12:40;19.33;;;6.40;;
49384;SDS011;36795;45.028;38.968;2023-09-19T02:15:26;20.75;;;6.47;;
49384;SDS011;36795;45.028;38.968;2023-09-19T02:18:13;20.33;;;6.03;;
49384;SDS011;36795;45.028;38.968;2023-09-19T02:21:03;18.73;;;6.43;;
49384;SDS011;36795;45.028;38.968;2023-09-19T02:23:49;20.45;;;6.68;;
49384;SDS011;36795;45.028;38.968;2023-09-19T02:26:37;22.13;;;7.20;;
49384;SDS011;36795;45.028;38.968;2023-09-19T02:29:25;22.35;;;6.75;;
49384;SDS011;36795;45.028;38.968;2023-09-19T02:32:12;20.12;;;6.93;;
49384;SDS011;36795;45.028;38.968;2023-09-19T02:34:58;21.15;;;6.62;;
49384;SDS011;36795;45.028;38.968;2023-09-19T02:37:48;22.40;;;7.18;;
49384;SDS011;36795;45.028;38.968;2023-09-19T02:40:34;21.83;;;7.00;;
49384;SDS011;36795;45.028;38.968;2023-09-19T02:43:22;21.10;;;6.68;;
49384;SDS011;36795;45.028;38.968;2023-09-19T02:46:08;23.60;;;7.18;;
49384;SDS011;36795;45.028;38.968;2023-09-19T02:48:54;23.98;;;6.50;;
49384;SDS011;36795;45.028;38.968;2023-09-19T02:51:40;21.05;;;6.75;;
49384;SDS011;36795;45.028;38.968;2023-09-19T02:54:26;21.75;;;6.75;;
49384;SDS011;36795;45.028;38.968;2023-09-19T02:57:13;23.05;;;7.32;;
49384;SDS011;36795;45.028;38.968;2023-09-19T03:00:02;22.23;;;7.25;;
49384;SDS011;36795;45.028;38.968;2023-09-19T03:02:58;22.02;;;6.80;;
49384;SDS011;36795;45.028;38.968;2023-09-19T03:05:45;27.15;;;7.78;;
49384;SDS011;36795;45.028;38.968;2023-09-19T03:08:32;26.00;;;7.62;;
49384;SDS011;36795;45.028;38.968;2023-09-19T03:11:21;27.15;;;7.65;;
49384;SDS011;36795;45.028;38.968;2023-09-19T03:14:08;24.73;;;7.72;;
49384;SDS011;36795;45.028;38.968;2023-09-19T03:16:55;33.30;;;8.85;;
49384;SDS011;36795;45.028;38.968;2023-09-19T03:19:41;25.33;;;7.87;;
49384;SDS011;36795;45.028;38.968;2023-09-19T03:22:27;30.50;;;9.05;;
49384;SDS011;36795;45.028;38.968;2023-09-19T03:25:13;31.20;;;9.05;;
49384;SDS011;36795;45.028;38.968;2023-09-19T03:28:02;25.55;;;9.10;;
49384;SDS011;36795;45.028;38.968;2023-09-19T03:30:57;31.23;;;8.27;;
49384;SDS011;36795;45.028;38.968;2023-09-19T03:33:46;24.92;;;7.90;;
49384;SDS011;36795;45.028;38.968;2023-09-19T03:36:32;26.08;;;9.07;;
49384;SDS011;36795;45.028;38.968;2023-09-19T03:39:18;32.28;;;8.85;;
49384;SDS011;36795;45.028;38.968;2023-09-19T03:42:04;27.98;;;8.60;;
49384;SDS011;36795;45.028;38.968;2023-09-19T03:44:53;28.60;;;9.02;;
49384;SDS011;36795;45.028;38.968;2023-09-19T03:47:40;24.63;;;8.93;;
49384;SDS011;36795;45.028;38.968;2023-09-19T03:50:27;27.15;;;9.32;;
49384;SDS011;36795;45.028;38.968;2023-09-19T03:53:13;27.90;;;9.45;;
49384;SDS011;36795;45.028;38.968;2023-09-19T03:56:00;26.67;;;9.40;;
49384;SDS011;36795;45.028;38.968;2023-09-19T03:58:47;25.83;;;9.25;;
49384;SDS011;36795;45.028;38.968;2023-09-19T04:01:34;27.85;;;10.13;;
49384;SDS011;36795;45.028;38.968;2023-09-19T04:04:21;28.65;;;9.98;;
49384;SDS011;36795;45.028;38.968;2023-09-19T04:07:09;27.90;;;9.27;;
49384;SDS011;36795;45.028;38.968;2023-09-19T04:09:55;26.40;;;8.82;;
49384;SDS011;36795;45.028;38.968;2023-09-19T04:12:49;28.23;;;9.38;;
49384;SDS011;36795;45.028;38.968;2023-09-19T04:15:37;28.62;;;9.88;;
49384;SDS011;36795;45.028;38.968;2023-09-19T04:18:25;28.50;;;9.27;;
49384;SDS011;36795;45.028;38.968;2023-09-19T04:21:11;27.62;;;9.10;;
49384;SDS011;36795;45.028;38.968;2023-09-19T04:23:57;26.27;;;9.32;;
49384;SDS011;36795;45.028;38.968;2023-09-19T04:26:43;30.67;;;10.27;;
49384;SDS011;36795;45.028;38.968;2023-09-19T04:29:29;25.33;;;10.48;;
49384;SDS011;36795;45.028;38.968;2023-09-19T04:32:16;29.77;;;10.25;;
49384;SDS011;36795;45.028;38.968;2023-09-19T04:35:02;29.33;;;9.80;;
49384;SDS011;36795;45.028;38.968;2023-09-19T04:37:51;26.70;;;9.90;;
49384;SDS011;36795;45.028;38.968;2023-09-19T04:40:37;24.30;;;10.07;;
49384;SDS011;36795;45.028;38.968;2023-09-19T04:43:25;32.13;;;9.10;;
49384;SDS011;36795;45.028;38.968;2023-09-19T04:46:11;29.48;;;9.02;;
49384;SDS011;36795;45.028;38.968;2023-09-19T04:48:59;30.10;;;9.77;;
49384;SDS011;36795;45.028;38.968;2023-09-19T04:51:45;32.28;;;9.25;;
49384;SDS011;36795;45.028;38.968;2023-09-19T04:54:38;24.55;;;8.05;;
49384;SDS011;36795;45.028;38.968;2023-09-19T04:57:26;26.92;;;9.13;;
49384;SDS011;36795;45.028;38.968;2023-09-19T05:00:20;28.83;;;8.60;;
49384;SDS011;36795;45.028;38.968;2023-09-19T05:03:14;27.80;;;8.60;;
49384;SDS011;36795;45.028;38.968;2023-09-19T05:06:05;27.87;;;7.95;;
49384;SDS011;36795;45.028;38.968;2023-09-19T05:08:51;30.92;;;8.50;;
49384;SDS011;36795;45.028;38.968;2023-09-19T05:11:38;33.75;;;8.50;;
49384;SDS011;36795;45.028;38.968;2023-09-19T05:14:23;24.35;;;7.30;;
49384;SDS011;36795;45.028;38.968;2023-09-19T05:17:10;25.95;;;6.90;;
49384;SDS011;36795;45.028;38.968;2023-09-19T05:19:56;22.25;;;7.05;;
49384;SDS011;36795;45.028;38.968;2023-09-19T05:23:07;26.33;;;6.90;;
49384;SDS011;36795;45.028;38.968;2023-09-19T05:25:54;24.15;;;6.40;;
49384;SDS011;36795;45.028;38.968;2023-09-19T05:28:42;24.80;;;5.93;;
49384;SDS011;36795;45.028;38.968;2023-09-19T05:31:28;20.60;;;5.53;;
49384;SDS011;36795;45.028;38.968;2023-09-19T05:34:17;21.25;;;5.68;;
49384;SDS011;36795;45.028;38.968;2023-09-19T05:37:06;20.45;;;5.90;;
49384;SDS011;36795;45.028;38.968;2023-09-19T05:39:53;21.00;;;5.40;;
49384;SDS011;36795;45.028;38.968;2023-09-19T05:42:39;20.95;;;5.15;;
49384;SDS011;36795;45.028;38.968;2023-09-19T05:45:26;19.23;;;4.95;;
49384;SDS011;36795;45.028;38.968;2023-09-19T05:48:13;18.83;;;4.82;;
49384;SDS011;36795;45.028;38.968;2023-09-19T05:51:01;18.62;;;4.43;;
49384;SDS011;36795;45.028;38.968;2023-09-19T05:53:46;17.85;;;5.00;;
49384;SDS011;36795;45.028;38.968;2023-09-19T05:56:33;20.88;;;5.18;;
49384;SDS011;36795;45.028;38.968;2023-09-19T05:59:19;17.15;;;4.18;;
49384;SDS011;36795;45.028;38.968;2023-09-19T06:02:05;17.02;;;4.28;;
49384;SDS011;36795;45.028;38.968;2023-09-19T06:04:52;16.75;;;3.85;;
49384;SDS011;36795;45.028;38.968;2023-09-19T06:07:40;19.23;;;4.75;;
49384;SDS011;36795;45.028;38.968;2023-09-19T06:10:27;18.98;;;3.75;;
49384;SDS011;36795;45.028;38.968;2023-09-19T06:13:13;17.42;;;4.50;;
49384;SDS011;36795;45.028;38.968;2023-09-19T06:16:00;16.87;;;4.22;;
49384;SDS011;36795;45.028;38.968;2023-09-19T06:18:50;16.27;;;4.10;;
49384;SDS011;36795;45.028;38.968;2023-09-19T06:21:38;16.92;;;4.30;;
49384;SDS011;36795;45.028;38.968;2023-09-19T06:24:23;13.23;;;3.85;;
49384;SDS011;36795;45.028;38.968;2023-09-19T06:27:11;16.77;;;4.07;;
49384;SDS011;36795;45.028;38.968;2023-09-19T06:29:56;15.13;;;4.15;;
49384;SDS011;36795;45.028;38.968;2023-09-19T06:32:42;19.77;;;4.30;;
49384;SDS011;36795;45.028;38.968;2023-09-19T06:35:29;16.15;;;4.85;;
49384;SDS011;36795;45.028;38.968;2023-09-19T06:38:19;14.27;;;4.15;;
49384;SDS011;36795;45.028;38.968;2023-09-19T06:41:05;19.45;;;4.53;;
49384;SDS011;36795;45.028;38.968;2023-09-19T06:43:53;14.50;;;4.25;;
49384;SDS011;36795;45.028;38.968;2023-09-19T06:46:40;15.90;;;4.75;;
49384;SDS011;36795;45.028;38.968;2023-09-19T06:49:36;17.30;;;4.53;;
49384;SDS011;36795;45.028;38.968;2023-09-19T06:52:22;21.02;;;4.68;;
49384;SDS011;36795;45.028;38.968;2023-09-19T06:55:09;21.48;;;5.15;;
49384;SDS011;36795;45.028;38.968;2023-09-19T06:57:57;20.73;;;4.47;;
49384;SDS011;36795;45.028;38.968;2023-09-19T07:00:44;20.17;;;4.35;;
49384;SDS011;36795;45.028;38.968;2023-09-19T07:03:30;15.55;;;4.07;;
49384;SDS011;36795;45.028;38.968;2023-09-19T07:06:18;16.25;;;4.78;;
49384;SDS011;36795;45.028;38.968;2023-09-19T07:09:04;15.85;;;4.32;;
49384;SDS011;36795;45.028;38.968;2023-09-19T07:11:51;12.10;;;4.10;;
49384;SDS011;36795;45.028;38.968;2023-09-19T07:14:38;23.73;;;4.30;;
49384;SDS011;36795;45.028;38.968;2023-09-19T07:17:25;17.05;;;4.55;;
49384;SDS011;36795;45.028;38.968;2023-09-19T07:20:10;18.10;;;4.65;;
49384;SDS011;36795;45.028;38.968;2023-09-19T07:23:01;15.35;;;3.80;;
49384;SDS011;36795;45.028;38.968;2023-09-19T07:25:48;18.65;;;4.40;;
49384;SDS011;36795;45.028;38.968;2023-09-19T07:28:35;21.75;;;4.10;;
49384;SDS011;36795;45.028;38.968;2023-09-19T07:31:21;20.35;;;3.95;;
49384;SDS011;36795;45.028;38.968;2023-09-19T07:34:08;14.90;;;4.03;;
49384;SDS011;36795;45.028;38.968;2023-09-19T07:36:55;13.98;;;4.10;;
49384;SDS011;36795;45.028;38.968;2023-09-19T07:39:48;14.85;;;3.97;;
49384;SDS011;36795;45.028;38.968;2023-09-19T07:42:36;19.25;;;4.57;;
49384;SDS011;36795;45.028;38.968;2023-09-19T07:45:27;16.42;;;4.37;;
49384;SDS011;36795;45.028;38.968;2023-09-19T07:48:15;16.50;;;4.15;;
49384;SDS011;36795;45.028;38.968;2023-09-19T07:51:05;22.20;;;4.95;;
49384;SDS011;36795;45.028;38.968;2023-09-19T07:53:52;21.67;;;5.00;;
49384;SDS011;36795;45.028;38.968;2023-09-19T07:56:40;21.60;;;5.93;;
49384;SDS011;36795;45.028;38.968;2023-09-19T07:59:26;20.02;;;5.82;;
49384;SDS011;36795;45.028;38.968;2023-09-19T08:02:13;20.33;;;5.60;;
49384;SDS011;36795;45.028;38.968;2023-09-19T08:05:03;22.95;;;6.43;;
49384;SDS011;36795;45.028;38.968;2023-09-19T08:07:55;20.08;;;5.93;;
49384;SDS011;36795;45.028;38.968;2023-09-19T08:10:42;21.58;;;5.85;;
49384;SDS011;36795;45.028;38.968;2023-09-19T08:13:30;15.50;;;5.05;;
49384;SDS011;36795;45.028;38.968;2023-09-19T08:16:17;14.18;;;4.10;;
49384;SDS011;36795;45.028;38.968;2023-09-19T08:19:04;18.20;;;4.50;;
49384;SDS011;36795;45.028;38.968;2023-09-19T08:21:51;16.50;;;3.67;;
49384;SDS011;36795;45.028;38.968;2023-09-19T08:24:37;18.12;;;4.82;;
49384;SDS011;36795;45.028;38.968;2023-09-19T08:27:24;13.32;;;3.75;;
49384;SDS011;36795;45.028;38.968;2023-09-19T08:30:12;11.55;;;3.60;;
49384;SDS011;36795;45.028;38.968;2023-09-19T08:33:00;14.82;;;3.85;;
49384;SDS011;36795;45.028;38.968;2023-09-19T08:35:46;16.52;;;4.45;;
49384;SDS011;36795;45.028;38.968;2023-09-19T08:38:33;14.48;;;3.75;;
49384;SDS011;36795;45.028;38.968;2023-09-19T08:41:20;18.52;;;4.30;;
49384;SDS011;36795;45.028;38.968;2023-09-19T08:44:06;15.65;;;3.58;;
49384;SDS011;36795;45.028;38.968;2023-09-19T08:46:54;18.58;;;3.30;;
49384;SDS011;36795;45.028;38.968;2023-09-19T08:49:57;14.30;;;3.20;;
49384;SDS011;36795;45.028;38.968;2023-09-19T08:52:50;18.33;;;3.58;;
49384;SDS011;36795;45.028;38.968;2023-09-19T08:55:40;17.48;;;3.75;;
49384;SDS011;36795;45.028;38.968;2023-09-19T08:58:31;18.92;;;4.00;;
49384;SDS011;36795;45.028;38.968;2023-09-19T09:01:29;12.50;;;3.60;;
49384;SDS011;36795;45.028;38.968;2023-09-19T09:04:17;16.73;;;3.58;;
49384;SDS011;36795;45.028;38.968;2023-09-19T09:07:04;15.05;;;3.70;;
49384;SDS011;36795;45.028;38.968;2023-09-19T09:09:50;14.30;;;3.72;;
49384;SDS011;36795;45.028;38.968;2023-09-19T09:12:37;11.18;;;3.03;;
49384;SDS011;36795;45.028;38.968;2023-09-19T09:15:25;15.20;;;3.17;;
49384;SDS011;36795;45.028;38.968;2023-09-19T09:18:15;17.80;;;3.72;;
49384;SDS011;36795;45.028;38.968;2023-09-19T09:21:01;16.50;;;3.78;;
49384;SDS011;36795;45.028;38.968;2023-09-19T09:23:49;11.90;;;3.65;;
49384;SDS011;36795;45.028;38.968;2023-09-19T09:29:44;10.70;;;2.80;;
49384;SDS011;36795;45.028;38.968;2023-09-19T09:32:36;17.52;;;3.08;;
49384;SDS011;36795;45.028;38.968;2023-09-19T09:35:24;16.10;;;4.62;;
49384;SDS011;36795;45.028;38.968;2023-09-19T09:38:10;15.45;;;3.97;;
49384;SDS011;36795;45.028;38.968;2023-09-19T09:40:57;18.62;;;3.45;;
49384;SDS011;36795;45.028;38.968;2023-09-19T09:43:46;17.27;;;3.10;;
49384;SDS011;36795;45.028;38.968;2023-09-19T09:46:34;11.98;;;3.67;;
49384;SDS011;36795;45.028;38.968;2023-09-19T09:49:55;14.52;;;3.12;;
49384;SDS011;36795;45.028;38.968;2023-09-19T09:52:52;12.88;;;3.22;;
49384;SDS011;36795;45.028;38.968;2023-09-19T09:55:56;12.70;;;3.10;;
49384;SDS011;36795;45.028;38.968;2023-09-19T10:01:46;12.88;;;3.20;;
49384;SDS011;36795;45.028;38.968;2023-09-19T10:04:34;12.15;;;3.00;;
49384;SDS011;36795;45.028;38.968;2023-09-19T10:07:28;14.45;;;3.75;;
49384;SDS011;36795;45.028;38.968;2023-09-19T10:10:41;11.98;;;3.35;;
49384;SDS011;36795;45.028;38.968;2023-09-19T10:13:28;12.10;;;3.05;;
49384;SDS011;36795;45.028;38.968;2023-09-19T10:16:16;20.75;;;3.90;;
49384;SDS011;36795;45.028;38.968;2023-09-19T10:19:03;14.10;;;3.62;;
49384;SDS011;36795;45.028;38.968;2023-09-19T10:21:54;13.23;;;3.20;;
49384;SDS011;36795;45.028;38.968;2023-09-19T10:24:44;11.05;;;2.90;;
49384;SDS011;36795;45.028;38.968;2023-09-19T10:27:33;11.00;;;2.80;;
49384;SDS011;36795;45.028;38.968;2023-09-19T10:30:22;10.25;;;2.90;;
49384;SDS011;36795;45.028;38.968;2023-09-19T10:33:10;13.70;;;3.45;;
49384;SDS011;36795;45.028;38.968;2023-09-19T10:35:58;10.23;;;2.83;;
49384;SDS011;36795;45.028;38.968;2023-09-19T10:38:46;11.10;;;2.70;;
49384;SDS011;36795;45.028;38.968;2023-09-19T10:41:34;12.65;;;3.10;;
49384;SDS011;36795;45.028;38.968;2023-09-19T10:44:25;15.27;;;3.20;;
49384;SDS011;36795;45.028;38.968;2023-09-19T10:47:13;12.95;;;2.83;;
49384;SDS011;36795;45.028;38.968;2023-09-19T10:50:00;12.10;;;3.15;;
49384;SDS011;36795;45.028;38.968;2023-09-19T10:52:47;20.35;;;3.50;;
49384;SDS011;36795;45.028;38.968;2023-09-19T10:55:37;17.58;;;3.80;;
49384;SDS011;36795;45.028;38.968;2023-09-19T10:58:25;14.63;;;3.92;;
49384;SDS011;36795;45.028;38.968;2023-09-19T11:01:19;16.10;;;3.55;;
49384;SDS011;36795;45.028;38.968;2023-09-19T11:07:12;13.05;;;2.90;;
49384;SDS011;36795;45.028;38.968;2023-09-19T11:10:01;14.20;;;3.72;;
49384;SDS011;36795;45.028;38.968;2023-09-19T11:12:48;19.45;;;3.30;;
49384;SDS011;36795;45.028;38.968;2023-09-19T11:18:52;14.27;;;3.50;;
49384;SDS011;36795;45.028;38.968;2023-09-19T11:21:39;17.30;;;4.00;;
49384;SDS011;36795;45.028;38.968;2023-09-19T11:24:28;12.45;;;3.17;;
49384;SDS011;36795;45.028;38.968;2023-09-19T11:27:16;12.43;;;3.70;;
49384;SDS011;36795;45.028;38.968;2023-09-19T11:33:22;19.48;;;3.10;;
49384;SDS011;36795;45.028;38.968;2023-09-19T11:36:35;14.45;;;3.33;;
49384;SDS011;36795;45.028;38.968;2023-09-19T11:48:43;12.35;;;2.65;;
49384;SDS011;36795;45.028;38.968;2023-09-19T11:51:37;15.63;;;3.30;;
49384;SDS011;36795;45.028;38.968;2023-09-19T11:54:30;9.95;;;3.08;;
49384;SDS011;36795;45.028;38.968;2023-09-19T11:57:20;15.88;;;3.00;;
49384;SDS011;36795;45.028;38.968;2023-09-19T12:00:17;12.75;;;2.83;;
49384;SDS011;36795;45.028;38.968;2023-09-19T12:03:08;15.82;;;3.20;;
49384;SDS011;36795;45.028;38.968;2023-09-19T12:06:11;17.02;;;3.10;;
49384;SDS011;36795;45.028;38.968;2023-09-19T12:09:06;14.23;;;3.22;;
49384;SDS011;36795;45.028;38.968;2023-09-19T12:12:02;11.60;;;2.72;;
49384;SDS011;36795;45.028;38.968;2023-09-19T12:14:49;14.52;;;2.97;;
49384;SDS011;36795;45.028;38.968;2023-09-19T12:17:39;12.50;;;3.20;;
49384;SDS011;36795;45.028;38.968;2023-09-19T12:20:43;11.43;;;3.12;;
49384;SDS011;36795;45.028;38.968;2023-09-19T12:23:35;14.68;;;3.50;;
49384;SDS011;36795;45.028;38.968;2023-09-19T12:26:23;21.15;;;3.37;;
49384;SDS011;36795;45.028;38.968;2023-09-19T12:29:15;20.65;;;3.22;;
49384;SDS011;36795;45.028;38.968;2023-09-19T12:32:06;16.87;;;3.33;;
49384;SDS011;36795;45.028;38.968;2023-09-19T12:34:52;17.27;;;7.57;;
49384;SDS011;36795;45.028;38.968;2023-09-19T12:37:51;16.73;;;3.78;;
49384;SDS011;36795;45.028;38.968;2023-09-19T12:40:40;15.50;;;3.80;;
49384;SDS011;36795;45.028;38.968;2023-09-19T12:43:28;17.27;;;3.30;;
49384;SDS011;36795;45.028;38.968;2023-09-19T12:46:20;16.83;;;3.60;;
49384;SDS011;36795;45.028;38.968;2023-09-19T12:49:27;16.73;;;3.70;;
49384;SDS011;36795;45.028;38.968;2023-09-19T12:52:23;12.88;;;3.28;;
49384;SDS011;36795;45.028;38.968;2023-09-19T12:55:25;11.45;;;3.30;;
49384;SDS011;36795;45.028;38.968;2023-09-19T12:58:28;16.23;;;4.00;;
49384;SDS011;36795;45.028;38.968;2023-09-19T13:01:15;11.93;;;3.22;;
49384;SDS011;36795;45.028;38.968;2023-09-19T13:04:13;16.17;;;3.58;;
49384;SDS011;36795;45.028;38.968;2023-09-19T13:07:43;12.32;;;3.55;;
49384;SDS011;36795;45.028;38.968;2023-09-19T13:14:24;14.18;;;3.25;;
49384;SDS011;36795;45.028;38.968;2023-09-19T13:17:42;15.60;;;3.37;;
49384;SDS011;36795;45.028;38.968;2023-09-19T13:21:08;12.45;;;2.80;;
49384;SDS011;36795;45.028;38.968;2023-09-19T13:24:22;14.25;;;2.95;;
49384;SDS011;36795;45.028;38.968;2023-09-19T13:27:11;10.73;;;3.10;;
49384;SDS011;36795;45.028;38.968;2023-09-19T13:29:58;13.35;;;2.85;;
49384;SDS011;36795;45.028;38.968;2023-09-19T13:32:47;13.85;;;2.85;;
49384;SDS011;36795;45.028;38.968;2023-09-19T13:35:34;13.35;;;3.40;;
49384;SDS011;36795;45.028;38.968;2023-09-19T13:38:22;17.60;;;3.70;;
49384;SDS011;36795;45.028;38.968;2023-09-19T13:41:15;15.27;;;3.30;;
49384;SDS011;36795;45.028;38.968;2023-09-19T13:44:04;17.77;;;3.62;;
49384;SDS011;36795;45.028;38.968;2023-09-19T13:46:51;14.60;;;3.30;;
49384;SDS011;36795;45.028;38.968;2023-09-19T13:49:39;15.23;;;3.10;;
49384;SDS011;36795;45.028;38.968;2023-09-19T13:52:26;17.83;;;3.95;;
49384;SDS011;36795;45.028;38.968;2023-09-19T13:55:15;19.17;;;4.07;;
49384;SDS011;36795;45.028;38.968;2023-09-19T13:58:05;27.85;;;3.60;;
49384;SDS011;36795;45.028;38.968;2023-09-19T14:00:56;11.60;;;3.03;;
49384;SDS011;36795;45.028;38.968;2023-09-19T14:03:46;19.23;;;4.28;;
49384;SDS011;36795;45.028;38.968;2023-09-19T14:06:34;11.93;;;3.35;;
49384;SDS011;36795;45.028;38.968;2023-09-19T14:09:24;12.55;;;3.42;;
49384;SDS011;36795;45.028;38.968;2023-09-19T14:12:13;16.55;;;3.15;;
49384;SDS011;36795;45.028;38.968;2023-09-19T14:15:12;9.73;;;2.90;;
49384;SDS011;36795;45.028;38.968;2023-09-19T14:17:59;14.63;;;4.07;;
49384;SDS011;36795;45.028;38.968;2023-09-19T14:20:46;11.85;;;3.10;;
49384;SDS011;36795;45.028;38.968;2023-09-19T14:23:35;13.75;;;3.50;;
49384;SDS011;36795;45.028;38.968;2023-09-19T14:26:26;17.40;;;3.72;;
49384;SDS011;36795;45.028;38.968;2023-09-19T14:29:13;22.92;;;5.22;;
49384;SDS011;36795;45.028;38.968;2023-09-19T14:32:05;18.42;;;3.83;;
49384;SDS011;36795;45.028;38.968;2023-09-19T14:35:11;13.95;;;3.65;;
49384;SDS011;36795;45.028;38.968;2023-09-19T14:38:02;15.90;;;4.28;;
49384;SDS011;36795;45.028;38.968;2023-09-19T14:40:48;13.13;;;3.15;;
49384;SDS011;36795;45.028;38.968;2023-09-19T14:43:39;19.02;;;4.55;;
49384;SDS011;36795;45.028;38.968;2023-09-19T14:46:31;16.55;;;3.37;;
49384;SDS011;36795;45.028;38.968;2023-09-19T14:49:17;18.10;;;4.25;;
49384;SDS011;36795;45.028;38.968;2023-09-19T14:52:07;12.98;;;3.92;;
49384;SDS011;36795;45.028;38.968;2023-09-19T14:54:58;18.40;;;3.47;;
49384;SDS011;36795;45.028;38.968;2023-09-19T14:57:44;16.62;;;3.78;;
49384;SDS011;36795;45.028;38.968;2023-09-19T15:00:38;23.12;;;4.12;;
49384;SDS011;36795;45.028;38.968;2023-09-19T15:03:24;16.73;;;3.75;;
49384;SDS011;36795;45.028;38.968;2023-09-19T15:06:12;19.45;;;3.40;;
49384;SDS011;36795;45.028;38.968;2023-09-19T15:09:00;21.02;;;3.83;;
49384;SDS011;36795;45.028;38.968;2023-09-19T15:11:47;18.73;;;4.50;;
49384;SDS011;36795;45.028;38.968;2023-09-19T15:14:33;36.45;;;5.50;;
49384;SDS011;36795;45.028;38.968;2023-09-19T15:17:26;19.92;;;3.80;;
49384;SDS011;36795;45.028;38.968;2023-09-19T15:20:12;23.27;;;4.82;;
49384;SDS011;36795;45.028;38.968;2023-09-19T15:23:00;23.23;;;3.95;;
49384;SDS011;36795;45.028;38.968;2023-09-19T15:25:54;24.20;;;4.35;;
49384;SDS011;36795;45.028;38.968;2023-09-19T15:28:52;22.23;;;4.72;;
49384;SDS011;36795;45.028;38.968;2023-09-19T15:31:39;21.05;;;4.78;;
49384;SDS011;36795;45.028;38.968;2023-09-19T15:34:30;23.77;;;4.65;;
49384;SDS011;36795;45.028;38.968;2023-09-19T15:37:16;20.92;;;4.70;;
49384;SDS011;36795;45.028;38.968;2023-09-19T15:40:03;18.30;;;3.90;;
49384;SDS011;36795;45.028;38.968;2023-09-19T15:42:56;22.65;;;4.75;;
49384;SDS011;36795;45.028;38.968;2023-09-19T15:45:43;20.65;;;5.00;;
49384;SDS011;36795;45.028;38.968;2023-09-19T15:48:29;23.77;;;5.70;;
49384;SDS011;36795;45.028;38.968;2023-09-19T15:51:15;21.98;;;4.75;;
49384;SDS011;36795;45.028;38.968;2023-09-19T15:54:01;20.23;;;5.57;;
49384;SDS011;36795;45.028;38.968;2023-09-19T15:56:54;26.97;;;6.57;;
49384;SDS011;36795;45.028;38.968;2023-09-19T15:59:41;23.45;;;4.95;;
49384;SDS011;36795;45.028;38.968;2023-09-19T16:02:30;16.67;;;4.22;;
49384;SDS011;36795;45.028;38.968;2023-09-19T16:05:20;25.90;;;5.53;;
49384;SDS011;36795;45.028;38.968;2023-09-19T16:08:07;24.77;;;5.28;;
49384;SDS011;36795;45.028;38.968;2023-09-19T16:10:54;22.23;;;5.93;;
49384;SDS011;36795;45.028;38.968;2023-09-19T16:13:42;23.83;;;5.55;;
49384;SDS011;36795;45.028;38.968;2023-09-19T16:16:32;31.48;;;6.55;;
49384;SDS011;36795;45.028;38.968;2023-09-19T16:19:21;31.65;;;6.07;;
49384;SDS011;36795;45.028;38.968;2023-09-19T16:22:09;29.30;;;7.40;;
49384;SDS011;36795;45.028;38.968;2023-09-19T16:25:00;25.70;;;7.43;;
49384;SDS011;36795;45.028;38.968;2023-09-19T16:27:47;26.48;;;7.60;;
49384;SDS011;36795;45.028;38.968;2023-09-19T16:30:34;25.12;;;7.40;;
49384;SDS011;36795;45.028;38.968;2023-09-19T16:33:23;23.87;;;7.60;;
49384;SDS011;36795;45.028;38.968;2023-09-19T16:36:18;27.87;;;8.57;;
49384;SDS011;36795;45.028;38.968;2023-09-19T16:39:07;25.95;;;7.10;;
49384;SDS011;36795;45.028;38.968;2023-09-19T16:41:55;22.98;;;6.87;;
49384;SDS011;36795;45.028;38.968;2023-09-19T16:44:43;25.58;;;6.40;;
49384;SDS011;36795;45.028;38.968;2023-09-19T16:47:31;32.17;;;10.77;;
49384;SDS011;36795;45.028;38.968;2023-09-19T16:50:18;24.77;;;6.35;;
49384;SDS011;36795;45.028;38.968;2023-09-19T16:53:08;24.35;;;6.90;;
49384;SDS011;36795;45.028;38.968;2023-09-19T16:56:02;27.55;;;9.27;;
49384;SDS011;36795;45.028;38.968;2023-09-19T16:58:57;23.50;;;6.05;;
49384;SDS011;36795;45.028;38.968;2023-09-19T17:01:51;21.12;;;5.62;;
49384;SDS011;36795;45.028;38.968;2023-09-19T17:04:39;24.27;;;5.82;;
49384;SDS011;36795;45.028;38.968;2023-09-19T17:07:25;20.42;;;5.43;;
49384;SDS011;36795;45.028;38.968;2023-09-19T17:10:14;24.90;;;5.93;;
49384;SDS011;36795;45.028;38.968;2023-09-19T17:13:04;25.20;;;6.05;;